Impacts METAR Board
IDs:

KCLT - Charlotte/Douglas In, NC, US

Updated at: 2000 UTC 15 Jun 2019
Potential Impact None Slight Moderate High
Time 15/08Z 15/09Z 15/10Z 15/11Z 15/12Z 15/13Z 15/14Z 15/15Z 15/16Z 15/17Z 15/18Z 15/19Z 15/20Z
Temp58 55 57 59 64 69 73 76 78 79 81 82 80
Dewpt52 51 51 52 57 58 59 60 59 59 59 59 58
Altim30.18 30.19 30.20 30.21 30.23 30.24 30.25 30.24 30.22 30.20 30.18 30.16 30.15
VIS10 9 10 10 10 10 10 10 10 10 10 10 10
CIG-- 250 -- -- -- -- -- -- 250 250 -- -- --
CoverSCTBKNSCTFEWFEWSCTSCTSCTBKNBKNSCTSCTSCT
FltCatVFRVFRVFRVFRVFRVFRVFRVFRVFRVFRVFRVFRVFR
WX--------------------------
WDir150000180210230220220230200190220
WSpd5 0 0 0 4 5 5 8 6 7 6 5 5
WGst-- -- -- -- -- -- -- -- -- -- -- -- --
Raw hourly METARs
KCLT 150752Z 15005KT 10SM SCT250 14/11 A3018 RMK AO2 SLP212 T01440111 $
KCLT 150852Z 00000KT 9SM BKN250 13/11 A3019 RMK AO2 SLP216 T01280106 55006 $
KCLT 150952Z 00000KT 10SM SCT250 14/11 A3020 RMK AO2 SLP221 T01390106 $
KCLT 151052Z 00000KT 10SM FEW250 15/11 A3021 RMK AO2 SLP224 T01500111 $
KCLT 151152Z 18004KT 10SM FEW250 18/14 A3023 RMK AO2 SLP230 T01780139 10178 20128 52014 $
KCLT 151252Z 21005KT 10SM SCT250 21/14 A3024 RMK AO2 SLP235 T02060144 $
KCLT 151352Z 23005KT 10SM SCT250 23/15 A3025 RMK AO2 SLP236 T02280150 $
KCLT 151452Z 22008KT 10SM FEW035 SCT250 24/16 A3024 RMK AO2 SLP231 T02440156 50003 $
KCLT 151552Z 22006KT 10SM SCT040 BKN250 26/15 A3022 RMK AO2 SLP225 T02560150 $
KCLT 151652Z 23007KT 10SM SCT040 BKN250 26/15 A3020 RMK AO2 SLP221 T02610150 $
KCLT 151752Z 20006KT 10SM SCT047 SCT250 27/15 A3018 RMK AO2 SLP214 T02720150 10278 20178 58018 $
KCLT 151852Z 19005KT 10SM SCT049 SCT190 SCT250 28/15 A3016 RMK AO2 SLP206 T02780150 $
KCLT 151952Z 22005KT 10SM SCT050 SCT190 SCT250 27/14 A3015 RMK AO2 SLP202 T02670144 $



Page loaded:  20:49 UTC  |   01:49 PM Pacific  |   02:49 PM Mountain  |   03:49 PM Central  |   04:49 PM Eastern

 

ADVISORIES

FORECASTS

FORECASTS

OBSERVATIONS

USER TOOLS

ABOUT US